createdAt,value
2022-09-11T00:01:27.226Z,15.96
2022-09-11T00:03:56.462Z,15.90
2022-09-11T00:06:30.089Z,15.87
2022-09-11T00:09:01.073Z,15.84
2022-09-11T00:11:31.135Z,15.79
2022-09-11T00:13:59.324Z,15.83
2022-09-11T00:16:28.927Z,15.83
2022-09-11T00:18:59.809Z,15.80
2022-09-11T00:21:29.439Z,15.76
2022-09-11T00:23:58.237Z,15.70
2022-09-11T00:26:26.743Z,15.70
2022-09-11T00:28:55.337Z,15.66
2022-09-11T00:31:25.490Z,15.72
2022-09-11T00:33:53.995Z,15.63
2022-09-11T00:36:24.401Z,15.65
2022-09-11T00:38:53.874Z,15.70
2022-09-11T00:41:24.275Z,15.63
2022-09-11T00:44:00.252Z,15.56
2022-09-11T00:46:37.250Z,15.56
2022-09-11T00:49:15.946Z,15.55
2022-09-11T00:51:47.850Z,15.50
2022-09-11T00:54:23.086Z,15.43
2022-09-11T00:56:51.628Z,15.41
2022-09-11T00:59:25.198Z,15.37
2022-09-11T01:01:53.443Z,15.39
2022-09-11T01:04:23.129Z,15.42
2022-09-11T01:06:52.764Z,15.39
2022-09-11T01:09:22.497Z,15.34
2022-09-11T01:12:01.033Z,15.34
2022-09-11T01:14:39.523Z,15.31
2022-09-11T01:17:18.138Z,15.25
2022-09-11T01:20:14.242Z,15.26
2022-09-11T01:22:59.127Z,15.20
2022-09-11T01:25:37.744Z,15.21
2022-09-11T01:28:12.008Z,15.19
2022-09-11T01:30:46.575Z,15.20
2022-09-11T01:33:20.048Z,15.16
2022-09-11T01:35:56.359Z,15.17
2022-09-11T01:38:31.657Z,15.17
2022-09-11T01:41:05.648Z,15.15
2022-09-11T01:43:38.811Z,15.17
2022-09-11T01:46:11.149Z,15.22
2022-09-11T01:48:44.717Z,15.22
2022-09-11T01:51:16.481Z,15.22
2022-09-11T01:53:50.368Z,15.25
2022-09-11T01:56:22.707Z,15.31
2022-09-11T01:58:59.595Z,15.32
2022-09-11T02:01:31.858Z,15.42
2022-09-11T02:04:10.580Z,15.31
2022-09-11T02:06:46.938Z,15.27
2022-09-11T02:09:22.826Z,15.22
2022-09-11T02:11:55.059Z,15.23
2022-09-11T02:14:30.511Z,15.30
2022-09-11T02:17:05.175Z,15.27
2022-09-11T02:19:33.621Z,15.35
2022-09-11T02:22:02.005Z,15.34
2022-09-11T02:24:30.106Z,15.29
2022-09-11T02:27:02.092Z,15.29
2022-09-11T02:29:33.562Z,15.31
2022-09-11T02:32:03.678Z,15.27
2022-09-11T02:34:35.403Z,15.24
2022-09-11T02:37:16.781Z,15.24
2022-09-11T02:40:05.819Z,15.24
2022-09-11T02:42:49.053Z,15.26
2022-09-11T02:45:30.469Z,15.25
2022-09-11T02:48:16.543Z,15.26
2022-09-11T02:50:54.108Z,15.26
2022-09-11T02:53:29.060Z,15.21
2022-09-11T02:56:04.439Z,15.27
2022-09-11T02:58:40.088Z,15.27
2022-09-11T03:01:10.813Z,15.32
2022-09-11T03:03:41.937Z,15.45
2022-09-11T03:06:14.963Z,15.38
2022-09-11T03:08:42.878Z,15.48
2022-09-11T03:11:11.063Z,15.49
2022-09-11T03:13:39.587Z,15.50
2022-09-11T03:16:12.419Z,15.44
2022-09-11T03:18:40.565Z,15.51
2022-09-11T03:21:11.386Z,15.54
2022-09-11T03:23:39.603Z,15.53
2022-09-11T03:26:07.505Z,15.50
2022-09-11T03:28:35.749Z,15.54
2022-09-11T03:31:09.895Z,15.52
2022-09-11T03:33:40.079Z,15.55
2022-09-11T03:36:11.694Z,15.52
2022-09-11T03:38:40.207Z,15.55
2022-09-11T03:41:09.514Z,15.56
2022-09-11T03:43:37.711Z,15.58
2022-09-11T03:46:06.990Z,15.57
2022-09-11T03:48:36.509Z,15.55
2022-09-11T03:51:06.605Z,15.56
2022-09-11T03:53:35.525Z,15.52
2022-09-11T03:56:06.430Z,15.57
2022-09-11T03:58:40.784Z,15.50
2022-09-11T04:01:12.228Z,15.50
2022-09-11T04:03:40.998Z,15.57
2022-09-11T04:06:14.025Z,15.59
2022-09-11T04:08:42.250Z,15.58
2022-09-11T04:11:12.673Z,15.58
2022-09-11T04:13:43.793Z,15.55
2022-09-11T04:16:17.035Z,15.56
2022-09-11T04:18:49.399Z,15.54
2022-09-11T04:21:19.542Z,15.56
2022-09-11T04:23:53.401Z,15.57
2022-09-11T04:26:24.217Z,15.58
2022-09-11T04:28:57.170Z,15.61
2022-09-11T04:31:26.251Z,15.60
2022-09-11T04:33:57.743Z,15.60
2022-09-11T04:36:30.664Z,15.58
2022-09-11T04:39:00.209Z,15.60
2022-09-11T04:41:29.076Z,15.61
2022-09-11T04:44:04.857Z,15.60
2022-09-11T04:46:34.615Z,15.62
2022-09-11T04:49:04.095Z,15.60
2022-09-11T04:51:36.611Z,15.62
2022-09-11T04:54:06.133Z,15.62
2022-09-11T04:56:38.961Z,15.56
2022-09-11T04:59:13.168Z,15.52
2022-09-11T05:01:44.313Z,15.55
2022-09-11T05:04:13.839Z,15.52
2022-09-11T05:06:48.289Z,15.53
2022-09-11T05:09:19.281Z,15.50
2022-09-11T05:11:49.070Z,15.55
2022-09-11T05:14:18.396Z,15.51
2022-09-11T05:16:48.591Z,15.51
2022-09-11T05:19:20.660Z,15.58
2022-09-11T05:21:51.091Z,15.60
2022-09-11T05:24:19.978Z,15.59
2022-09-11T05:26:48.122Z,15.60
2022-09-11T05:29:17.506Z,15.60
2022-09-11T05:31:55.757Z,15.67
2022-09-11T05:34:24.727Z,15.62
2022-09-11T05:36:54.180Z,15.65
2022-09-11T05:39:22.341Z,15.65
2022-09-11T05:41:51.450Z,15.68
2022-09-11T05:44:19.696Z,15.65
2022-09-11T05:46:48.416Z,15.63
2022-09-11T05:49:16.864Z,15.70
2022-09-11T05:51:44.764Z,15.70
2022-09-11T05:54:14.066Z,15.72
2022-09-11T05:56:42.501Z,15.74
2022-09-11T05:59:17.447Z,15.75
2022-09-11T06:01:50.317Z,15.69
2022-09-11T06:04:28.062Z,15.68
2022-09-11T06:06:58.496Z,15.71
2022-09-11T06:09:29.795Z,15.70
2022-09-11T06:11:57.986Z,15.73
2022-09-11T06:14:26.034Z,15.74
2022-09-11T06:16:54.224Z,15.73
2022-09-11T06:19:22.240Z,15.69
2022-09-11T06:21:50.992Z,15.73
2022-09-11T06:24:25.813Z,15.72
2022-09-11T06:26:55.167Z,15.75
2022-09-11T06:29:23.850Z,15.75
2022-09-11T06:31:52.988Z,15.78
2022-09-11T06:34:24.497Z,15.89
2022-09-11T06:36:53.434Z,15.81
2022-09-11T06:39:23.377Z,15.83
2022-09-11T06:41:53.234Z,15.84
2022-09-11T06:44:29.842Z,15.73
2022-09-11T06:47:00.825Z,15.86
2022-09-11T06:49:29.156Z,15.90
2022-09-11T06:52:15.921Z,15.90
2022-09-11T06:54:53.135Z,15.90
2022-09-11T06:57:22.422Z,15.90
2022-09-11T06:59:52.172Z,16.00
2022-09-11T07:02:21.211Z,15.88
2022-09-11T07:04:49.388Z,15.95
2022-09-11T07:07:19.199Z,16.00
2022-09-11T07:09:47.170Z,16.04
2022-09-11T07:12:15.415Z,16.01
2022-09-11T07:14:43.750Z,16.02
2022-09-11T07:17:18.893Z,16.02
2022-09-11T07:19:50.152Z,16.02
2022-09-11T07:22:19.784Z,16.04
2022-09-11T07:24:49.702Z,16.04
2022-09-11T07:27:19.434Z,16.12
2022-09-11T07:29:49.014Z,16.10
2022-09-11T07:32:18.272Z,16.07
2022-09-11T07:34:47.664Z,16.08
2022-09-11T07:37:16.189Z,16.11
2022-09-11T07:39:44.245Z,16.13
2022-09-11T07:42:19.309Z,16.07
2022-09-11T07:44:48.131Z,16.07
2022-09-11T07:47:18.219Z,16.02
2022-09-11T07:49:50.554Z,16.15
2022-09-11T07:52:20.696Z,16.15
2022-09-11T07:54:55.344Z,16.13
2022-09-11T07:57:27.457Z,16.12
2022-09-11T07:59:56.045Z,16.13
2022-09-11T08:02:25.706Z,16.14
2022-09-11T08:04:55.108Z,16.14
2022-09-11T08:07:24.139Z,16.16
2022-09-11T08:10:10.199Z,16.25
2022-09-11T08:12:41.952Z,16.18
2022-09-11T08:15:10.514Z,16.14
2022-09-11T08:17:40.051Z,16.12
2022-09-11T08:20:09.454Z,16.04
2022-09-11T08:22:37.803Z,16.09
2022-09-11T08:25:07.224Z,16.12
2022-09-11T08:27:35.894Z,16.15
2022-09-11T08:30:04.253Z,16.08
2022-09-11T08:32:33.309Z,16.20
2022-09-11T08:35:03.999Z,16.23
2022-09-11T08:37:32.120Z,16.15
2022-09-11T08:40:00.887Z,16.13
2022-09-11T08:42:30.945Z,16.10
2022-09-11T08:45:01.095Z,16.12
2022-09-11T08:47:42.784Z,16.09
2022-09-11T08:50:20.371Z,16.09
2022-09-11T08:52:51.240Z,16.09
2022-09-11T08:55:32.139Z,16.13
2022-09-11T08:58:12.441Z,16.09
2022-09-11T09:00:46.435Z,15.98
2022-09-11T09:03:39.700Z,16.04
2022-09-11T09:06:29.212Z,16.09
2022-09-11T09:09:09.443Z,16.07
2022-09-11T09:11:43.271Z,16.07
2022-09-11T09:14:45.141Z,16.07
2022-09-11T09:17:20.192Z,16.03
2022-09-11T09:19:56.851Z,15.97
2022-09-11T09:22:34.959Z,16.08
2022-09-11T09:25:10.738Z,16.08
2022-09-11T09:27:45.605Z,16.19
2022-09-11T09:30:18.021Z,16.18
2022-09-11T09:32:53.562Z,16.19
2022-09-11T09:35:25.253Z,16.16
2022-09-11T09:37:56.389Z,16.23
2022-09-11T09:40:26.881Z,16.15
2022-09-11T09:43:19.972Z,16.19
2022-09-11T09:46:11.476Z,16.17
2022-09-11T09:48:41.273Z,16.16
2022-09-11T09:51:14.258Z,16.26
2022-09-11T09:53:49.052Z,16.34
2022-09-11T09:56:20.355Z,16.42
2022-09-11T09:58:56.507Z,16.48
2022-09-11T10:01:44.066Z,16.58
2022-09-11T10:04:16.623Z,16.64
2022-09-11T10:06:46.894Z,16.61
2022-09-11T10:09:28.749Z,16.65
2022-09-11T10:12:02.716Z,16.66
2022-09-11T10:14:51.067Z,16.74
2022-09-11T10:17:33.823Z,16.93
2022-09-11T10:20:22.045Z,17.00
2022-09-11T10:22:50.970Z,17.05
2022-09-11T10:25:23.793Z,17.07
2022-09-11T10:28:03.519Z,17.15
2022-09-11T10:30:36.159Z,17.35
2022-09-11T10:33:08.389Z,17.28
2022-09-11T10:35:37.785Z,17.27
2022-09-11T10:38:26.404Z,17.24
2022-09-11T10:41:07.901Z,17.14
2022-09-11T10:43:42.499Z,17.29
2022-09-11T10:46:25.726Z,17.27
2022-09-11T10:48:55.795Z,17.35
2022-09-11T10:51:24.748Z,17.35
2022-09-11T10:54:07.667Z,17.34
2022-09-11T10:56:44.090Z,17.37
2022-09-11T10:59:18.362Z,17.43
2022-09-11T11:01:46.874Z,17.69
2022-09-11T11:04:15.294Z,17.88
2022-09-11T11:06:59.544Z,17.82
2022-09-11T11:46:38.545Z,17.96
2022-09-11T11:54:37.086Z,17.79
2022-09-11T11:57:15.462Z,18.04
2022-09-11T12:00:11.582Z,17.95
2022-09-11T12:03:03.888Z,18.01
2022-09-11T12:05:41.995Z,17.95
2022-09-11T12:08:19.069Z,18.01
2022-09-11T12:24:33.221Z,18.06
2022-09-11T12:27:50.198Z,18.02
2022-09-11T12:30:27.803Z,18.01
2022-09-11T12:33:24.805Z,18.04
2022-09-11T12:35:58.412Z,18.04
2022-09-11T12:38:39.749Z,18.07
2022-09-11T12:41:17.660Z,18.11
2022-09-11T12:43:57.635Z,18.08
2022-09-11T12:47:54.620Z,18.15
2022-09-11T12:50:30.143Z,18.12
2022-09-11T12:53:02.516Z,18.27
2022-09-11T12:55:43.429Z,18.19
2022-09-11T12:58:38.774Z,18.21
2022-09-11T13:01:24.526Z,18.19
2022-09-11T13:44:15.185Z,18.77
2022-09-11T13:59:18.852Z,19.47
2022-09-11T14:02:45.741Z,19.34
2022-09-11T14:08:46.468Z,19.41
2022-09-11T14:11:44.510Z,19.54
2022-09-11T14:14:34.277Z,19.45
2022-09-11T14:17:13.940Z,19.50
2022-09-11T14:19:50.422Z,19.58
2022-09-11T14:22:25.884Z,19.46
2022-09-11T14:25:00.657Z,19.44
2022-09-11T14:27:44.440Z,19.41
2022-09-11T14:30:39.349Z,19.49
2022-09-11T14:33:40.569Z,19.70
2022-09-11T14:36:19.427Z,19.80
2022-09-11T14:38:49.010Z,19.63
2022-09-11T14:41:20.874Z,19.82
2022-09-11T14:43:53.435Z,19.63
2022-09-11T14:46:23.920Z,19.61
2022-09-11T14:48:55.380Z,19.60
2022-09-11T14:51:46.219Z,19.58
2022-09-11T14:54:17.675Z,19.66
2022-09-11T14:56:53.829Z,19.63
2022-09-11T14:59:23.696Z,19.67
2022-09-11T15:01:55.304Z,19.64
2022-09-11T15:10:04.713Z,19.79
2022-09-11T15:16:04.887Z,20.01
2022-09-11T15:18:43.353Z,19.90
2022-09-11T15:21:14.594Z,19.83
2022-09-11T15:24:02.814Z,19.88
2022-09-11T15:27:22.919Z,19.87
2022-09-11T15:30:00.107Z,20.07
2022-09-11T15:32:51.440Z,20.20
2022-09-11T15:44:41.801Z,19.80
2022-09-11T15:47:19.975Z,19.82
2022-09-11T15:49:50.292Z,19.82
2022-09-11T15:52:39.243Z,19.85
2022-09-11T15:55:17.445Z,19.82
2022-09-11T15:57:46.263Z,19.80
2022-09-11T16:00:17.372Z,19.84
2022-09-11T16:02:48.518Z,19.96
2022-09-11T16:05:23.452Z,19.94
2022-09-11T16:11:48.094Z,19.82
2022-09-11T16:14:59.865Z,19.74
2022-09-11T16:22:41.125Z,19.76
2022-09-11T16:25:32.604Z,19.73
2022-09-11T16:28:09.136Z,19.68
2022-09-11T16:30:46.573Z,19.67
2022-09-11T16:37:52.768Z,19.72
2022-09-11T16:41:48.787Z,19.66
2022-09-11T17:14:37.094Z,19.22
2022-09-11T17:17:07.159Z,19.16
2022-09-11T17:19:35.951Z,19.11
2022-09-11T17:22:04.500Z,19.05
2022-09-11T17:24:34.748Z,19.01
2022-09-11T17:27:02.873Z,18.89
2022-09-11T17:29:30.892Z,18.81
2022-09-11T17:32:26.156Z,18.73
2022-09-11T17:34:48.683Z,18.69
2022-09-11T17:37:17.311Z,18.63
2022-09-11T17:39:45.829Z,18.55
2022-09-11T17:42:14.190Z,18.46
2022-09-11T17:44:42.812Z,18.33
2022-09-11T17:47:12.381Z,18.27
2022-09-11T17:49:40.594Z,18.24
2022-09-11T17:52:08.476Z,18.14
2022-09-11T17:54:36.501Z,18.07
2022-09-11T17:57:04.995Z,18.07
2022-09-11T17:59:33.049Z,17.97
2022-09-11T18:02:04.837Z,17.86
2022-09-11T18:04:34.560Z,17.75
2022-09-11T18:07:04.341Z,17.69
2022-09-11T18:09:32.513Z,17.58
2022-09-11T18:12:03.574Z,17.54
2022-09-11T18:14:32.418Z,17.46
2022-09-11T18:17:00.576Z,17.39
2022-09-11T18:19:29.143Z,17.30
2022-09-11T18:21:59.854Z,17.23
2022-09-11T18:24:29.920Z,17.18
2022-09-11T18:27:00.907Z,17.14
2022-09-11T18:29:30.706Z,17.08
2022-09-11T18:32:00.216Z,17.07
2022-09-11T18:34:29.624Z,17.02
2022-09-11T18:37:00.101Z,16.96
2022-09-11T18:39:28.255Z,16.91
2022-09-11T18:41:57.276Z,16.92
2022-09-11T18:44:25.898Z,16.84
2022-09-11T18:46:55.811Z,16.83
2022-09-11T18:49:24.473Z,16.82
2022-09-11T18:51:53.722Z,16.81
2022-09-11T18:54:23.700Z,16.79
2022-09-11T18:56:52.077Z,16.76
2022-09-11T18:59:20.441Z,16.74
2022-09-11T19:01:48.742Z,16.67
2022-09-11T19:04:17.376Z,16.65
2022-09-11T19:06:46.315Z,16.59
2022-09-11T19:09:14.914Z,16.54
2022-09-11T19:11:45.502Z,16.54
2022-09-11T19:14:14.191Z,16.45
2022-09-11T19:16:42.526Z,16.42
2022-09-11T19:19:10.876Z,16.37
2022-09-11T19:21:39.938Z,16.28
2022-09-11T19:24:08.605Z,16.29
2022-09-11T19:26:39.205Z,16.24
2022-09-11T19:29:09.691Z,16.19
2022-09-11T19:31:39.440Z,16.07
2022-09-11T19:34:08.693Z,16.12
2022-09-11T19:36:37.143Z,15.96
2022-09-11T19:39:06.678Z,16.03
2022-09-11T19:41:37.422Z,16.06
2022-09-11T19:44:09.385Z,16.02
2022-09-11T19:46:38.130Z,15.97
2022-09-11T19:49:08.070Z,15.89
2022-09-11T19:51:37.581Z,15.93
2022-09-11T19:54:06.513Z,15.82
2022-09-11T19:56:38.299Z,15.76
2022-09-11T19:59:11.315Z,15.70
2022-09-11T20:01:39.714Z,15.62
2022-09-11T20:04:11.508Z,15.61
2022-09-11T20:09:30.567Z,15.60
2022-09-11T20:12:00.833Z,15.57
2022-09-11T20:14:31.296Z,15.61
2022-09-11T20:17:05.874Z,15.54
2022-09-11T20:19:34.086Z,15.55
2022-09-11T20:22:02.148Z,15.51
2022-09-11T20:24:30.245Z,15.49
2022-09-11T20:27:00.379Z,15.47
2022-09-11T20:29:30.305Z,15.46
2022-09-11T20:32:00.452Z,15.49
2022-09-11T20:34:28.769Z,15.49
2022-09-11T20:37:00.710Z,15.43
2022-09-11T20:39:29.115Z,15.45
2022-09-11T20:41:57.299Z,15.38
2022-09-11T20:44:26.641Z,15.37
2022-09-11T20:46:56.246Z,15.37
2022-09-11T20:49:24.235Z,15.36
2022-09-11T20:51:52.135Z,15.35
2022-09-11T20:54:20.035Z,15.35
2022-09-11T20:56:47.947Z,15.30
2022-09-11T20:59:16.142Z,15.29
2022-09-11T21:01:44.335Z,15.32
2022-09-11T21:04:13.944Z,15.32
2022-09-11T21:06:41.923Z,15.26
2022-09-11T21:09:12.710Z,15.25
2022-09-11T21:11:42.224Z,15.31
2022-09-11T21:14:11.508Z,15.25
2022-09-11T21:16:39.613Z,15.26
2022-09-11T21:19:08.053Z,15.24
2022-09-11T21:21:40.141Z,15.21
2022-09-11T21:24:12.563Z,15.12
2022-09-11T21:26:41.213Z,15.12
2022-09-11T21:29:13.038Z,15.08
2022-09-11T21:31:41.193Z,15.05
2022-09-11T21:34:10.163Z,15.03
2022-09-11T21:36:39.661Z,15.02
2022-09-11T21:39:07.979Z,15.03
2022-09-11T21:41:35.970Z,15.03
2022-09-11T21:44:04.597Z,15.09
2022-09-11T21:46:32.883Z,15.12
2022-09-11T21:49:01.732Z,15.03
2022-09-11T21:51:29.879Z,14.96
2022-09-11T21:54:01.653Z,14.99
2022-09-11T21:56:32.071Z,14.90
2022-09-11T21:59:01.847Z,14.80
2022-09-11T22:01:31.907Z,14.74
2022-09-11T22:04:03.568Z,14.70
2022-09-11T22:06:32.328Z,14.67
2022-09-11T22:09:01.710Z,14.58
2022-09-11T22:11:29.670Z,14.53
2022-09-11T22:13:57.684Z,14.52
2022-09-11T22:16:25.767Z,14.47
2022-09-11T22:18:55.481Z,14.46
2022-09-11T22:21:24.762Z,14.39
2022-09-11T22:23:52.658Z,14.47
2022-09-11T22:26:23.897Z,14.48
2022-09-11T22:28:52.030Z,14.46
2022-09-11T22:31:21.841Z,14.36
2022-09-11T22:33:49.911Z,14.34
2022-09-11T22:36:20.443Z,14.35
2022-09-11T22:38:48.999Z,14.37
2022-09-11T22:41:17.586Z,14.39
2022-09-11T22:43:48.838Z,14.36
2022-09-11T22:46:17.386Z,14.27
2022-09-11T22:48:45.418Z,14.39
2022-09-11T22:51:13.700Z,14.36
2022-09-11T22:53:41.846Z,14.40
2022-09-11T22:56:10.377Z,14.49
2022-09-11T22:58:39.335Z,14.42
2022-09-11T23:01:11.143Z,14.37
2022-09-11T23:03:39.432Z,14.24
2022-09-11T23:06:25.156Z,14.18
2022-09-11T23:08:53.525Z,14.16
2022-09-11T23:11:22.021Z,14.12
2022-09-11T23:13:50.795Z,14.15
2022-09-11T23:16:22.727Z,14.18
2022-09-11T23:18:54.864Z,14.20
2022-09-11T23:21:22.909Z,14.15
2022-09-11T23:23:54.333Z,14.16
2022-09-11T23:26:23.794Z,14.20
2022-09-11T23:28:51.847Z,14.17
2022-09-11T23:31:25.185Z,14.13
2022-09-11T23:33:55.419Z,14.18
2022-09-11T23:36:24.207Z,14.16
2022-09-11T23:38:52.373Z,14.20
2022-09-11T23:41:20.648Z,14.17
2022-09-11T23:43:49.549Z,14.07
2022-09-11T23:46:18.161Z,14.05
2022-09-11T23:48:47.585Z,14.06
2022-09-11T23:51:15.892Z,14.03
2022-09-11T23:53:47.545Z,14.07
2022-09-11T23:56:16.218Z,14.05
2022-09-11T23:58:45.630Z,14.04
